sensor_id;sensor_type;location;lat;lon;timestamp;P1;durP1;ratioP1;P2;durP2;ratioP2
22007;SDS011;11168;56.976;24.168;2023-12-29T00:00:19;45.45;;;19.95;;
22007;SDS011;11168;56.976;24.168;2023-12-29T00:02:47;41.25;;;17.33;;
22007;SDS011;11168;56.976;24.168;2023-12-29T00:05:14;36.08;;;13.55;;
22007;SDS011;11168;56.976;24.168;2023-12-29T00:07:43;27.90;;;10.63;;
22007;SDS011;11168;56.976;24.168;2023-12-29T00:10:10;19.33;;;8.43;;
22007;SDS011;11168;56.976;24.168;2023-12-29T00:12:37;19.20;;;7.45;;
22007;SDS011;11168;56.976;24.168;2023-12-29T00:15:05;20.60;;;6.63;;
22007;SDS011;11168;56.976;24.168;2023-12-29T00:17:32;23.42;;;5.90;;
22007;SDS011;11168;56.976;24.168;2023-12-29T00:22:31;22.45;;;4.53;;
22007;SDS011;11168;56.976;24.168;2023-12-29T00:25:01;18.88;;;4.10;;
22007;SDS011;11168;56.976;24.168;2023-12-29T00:27:29;14.88;;;3.65;;
22007;SDS011;11168;56.976;24.168;2023-12-29T00:29:56;17.70;;;4.03;;
22007;SDS011;11168;56.976;24.168;2023-12-29T00:32:23;17.05;;;3.55;;
22007;SDS011;11168;56.976;24.168;2023-12-29T00:34:50;17.30;;;3.33;;
22007;SDS011;11168;56.976;24.168;2023-12-29T00:37:17;18.00;;;3.38;;
22007;SDS011;11168;56.976;24.168;2023-12-29T00:39:44;17.25;;;3.03;;
22007;SDS011;11168;56.976;24.168;2023-12-29T00:42:11;17.67;;;3.15;;
22007;SDS011;11168;56.976;24.168;2023-12-29T00:44:38;15.50;;;3.13;;
22007;SDS011;11168;56.976;24.168;2023-12-29T00:47:05;13.10;;;3.20;;
22007;SDS011;11168;56.976;24.168;2023-12-29T00:49:34;15.63;;;3.33;;
22007;SDS011;11168;56.976;24.168;2023-12-29T00:52:04;19.33;;;3.00;;
22007;SDS011;11168;56.976;24.168;2023-12-29T00:54:31;16.20;;;2.95;;
22007;SDS011;11168;56.976;24.168;2023-12-29T00:56:59;17.92;;;3.33;;
22007;SDS011;11168;56.976;24.168;2023-12-29T00:59:26;19.73;;;3.67;;
22007;SDS011;11168;56.976;24.168;2023-12-29T01:01:54;15.93;;;3.70;;
22007;SDS011;11168;56.976;24.168;2023-12-29T01:04:21;13.30;;;3.08;;
22007;SDS011;11168;56.976;24.168;2023-12-29T01:06:48;12.90;;;3.05;;
22007;SDS011;11168;56.976;24.168;2023-12-29T01:09:19;11.52;;;3.22;;
22007;SDS011;11168;56.976;24.168;2023-12-29T01:11:46;18.20;;;3.67;;
22007;SDS011;11168;56.976;24.168;2023-12-29T01:14:13;16.63;;;3.47;;
22007;SDS011;11168;56.976;24.168;2023-12-29T01:16:42;16.33;;;3.65;;
22007;SDS011;11168;56.976;24.168;2023-12-29T01:19:09;17.52;;;4.18;;
22007;SDS011;11168;56.976;24.168;2023-12-29T01:21:37;17.55;;;3.88;;
22007;SDS011;11168;56.976;24.168;2023-12-29T01:24:05;22.90;;;4.63;;
22007;SDS011;11168;56.976;24.168;2023-12-29T01:26:36;21.50;;;4.30;;
22007;SDS011;11168;56.976;24.168;2023-12-29T01:29:05;13.23;;;3.42;;
22007;SDS011;11168;56.976;24.168;2023-12-29T01:31:32;18.02;;;3.47;;
22007;SDS011;11168;56.976;24.168;2023-12-29T01:33:59;16.45;;;3.20;;
22007;SDS011;11168;56.976;24.168;2023-12-29T01:36:27;15.38;;;3.42;;
22007;SDS011;11168;56.976;24.168;2023-12-29T01:38:54;16.52;;;3.30;;
22007;SDS011;11168;56.976;24.168;2023-12-29T01:41:23;18.42;;;3.40;;
22007;SDS011;11168;56.976;24.168;2023-12-29T01:46:27;14.73;;;3.00;;
22007;SDS011;11168;56.976;24.168;2023-12-29T01:48:56;14.38;;;3.05;;
22007;SDS011;11168;56.976;24.168;2023-12-29T01:51:26;15.60;;;2.80;;
22007;SDS011;11168;56.976;24.168;2023-12-29T01:53:53;16.83;;;2.88;;
22007;SDS011;11168;56.976;24.168;2023-12-29T01:56:23;13.53;;;3.17;;
22007;SDS011;11168;56.976;24.168;2023-12-29T01:58:51;12.23;;;2.03;;
22007;SDS011;11168;56.976;24.168;2023-12-29T02:01:18;15.60;;;2.60;;
22007;SDS011;11168;56.976;24.168;2023-12-29T02:03:46;12.35;;;2.22;;
22007;SDS011;11168;56.976;24.168;2023-12-29T02:06:14;13.82;;;2.20;;
22007;SDS011;11168;56.976;24.168;2023-12-29T02:08:44;16.83;;;2.40;;
22007;SDS011;11168;56.976;24.168;2023-12-29T02:11:11;14.52;;;2.40;;
22007;SDS011;11168;56.976;24.168;2023-12-29T02:13:39;15.70;;;2.00;;
22007;SDS011;11168;56.976;24.168;2023-12-29T02:16:17;13.10;;;2.28;;
22007;SDS011;11168;56.976;24.168;2023-12-29T02:18:49;13.25;;;2.75;;
22007;SDS011;11168;56.976;24.168;2023-12-29T02:21:22;14.10;;;2.35;;
22007;SDS011;11168;56.976;24.168;2023-12-29T02:23:52;13.43;;;2.47;;
22007;SDS011;11168;56.976;24.168;2023-12-29T02:26:21;12.88;;;2.28;;
22007;SDS011;11168;56.976;24.168;2023-12-29T02:28:55;19.60;;;2.63;;
22007;SDS011;11168;56.976;24.168;2023-12-29T02:31:27;17.58;;;2.05;;
22007;SDS011;11168;56.976;24.168;2023-12-29T02:33:57;13.88;;;2.08;;
22007;SDS011;11168;56.976;24.168;2023-12-29T02:36:26;16.25;;;2.42;;
22007;SDS011;11168;56.976;24.168;2023-12-29T02:38:54;15.48;;;1.95;;
22007;SDS011;11168;56.976;24.168;2023-12-29T02:41:22;17.00;;;2.10;;
22007;SDS011;11168;56.976;24.168;2023-12-29T02:43:51;12.25;;;1.83;;
22007;SDS011;11168;56.976;24.168;2023-12-29T02:46:18;15.38;;;2.38;;
22007;SDS011;11168;56.976;24.168;2023-12-29T02:48:45;15.40;;;2.65;;
22007;SDS011;11168;56.976;24.168;2023-12-29T02:51:13;13.50;;;1.95;;
22007;SDS011;11168;56.976;24.168;2023-12-29T02:53:43;19.15;;;2.50;;
22007;SDS011;11168;56.976;24.168;2023-12-29T02:56:10;11.60;;;2.10;;
22007;SDS011;11168;56.976;24.168;2023-12-29T02:58:37;16.10;;;2.20;;
22007;SDS011;11168;56.976;24.168;2023-12-29T03:01:04;13.07;;;2.70;;
22007;SDS011;11168;56.976;24.168;2023-12-29T03:03:32;18.17;;;2.80;;
22007;SDS011;11168;56.976;24.168;2023-12-29T03:05:59;16.80;;;2.70;;
22007;SDS011;11168;56.976;24.168;2023-12-29T03:08:26;20.63;;;3.08;;
22007;SDS011;11168;56.976;24.168;2023-12-29T03:10:53;13.13;;;2.85;;
22007;SDS011;11168;56.976;24.168;2023-12-29T03:13:20;12.95;;;2.55;;
22007;SDS011;11168;56.976;24.168;2023-12-29T03:15:47;16.67;;;3.05;;
22007;SDS011;11168;56.976;24.168;2023-12-29T03:18:14;16.58;;;2.90;;
22007;SDS011;11168;56.976;24.168;2023-12-29T03:20:42;17.30;;;3.58;;
22007;SDS011;11168;56.976;24.168;2023-12-29T03:23:09;17.23;;;3.17;;
22007;SDS011;11168;56.976;24.168;2023-12-29T03:25:36;13.55;;;2.95;;
22007;SDS011;11168;56.976;24.168;2023-12-29T03:28:03;21.35;;;3.28;;
22007;SDS011;11168;56.976;24.168;2023-12-29T03:30:33;17.10;;;3.63;;
22007;SDS011;11168;56.976;24.168;2023-12-29T03:33:00;18.67;;;3.67;;
22007;SDS011;11168;56.976;24.168;2023-12-29T03:35:30;20.60;;;3.38;;
22007;SDS011;11168;56.976;24.168;2023-12-29T03:37:57;21.83;;;3.47;;
22007;SDS011;11168;56.976;24.168;2023-12-29T03:40:24;15.23;;;3.53;;
22007;SDS011;11168;56.976;24.168;2023-12-29T03:42:51;18.23;;;3.80;;
22007;SDS011;11168;56.976;24.168;2023-12-29T03:45:18;19.52;;;3.75;;
22007;SDS011;11168;56.976;24.168;2023-12-29T03:47:49;21.85;;;3.65;;
22007;SDS011;11168;56.976;24.168;2023-12-29T03:50:18;25.73;;;3.75;;
22007;SDS011;11168;56.976;24.168;2023-12-29T03:52:45;27.92;;;3.80;;
22007;SDS011;11168;56.976;24.168;2023-12-29T03:55:14;19.38;;;3.63;;
22007;SDS011;11168;56.976;24.168;2023-12-29T03:57:42;25.90;;;4.50;;
22007;SDS011;11168;56.976;24.168;2023-12-29T04:00:13;22.20;;;5.20;;
22007;SDS011;11168;56.976;24.168;2023-12-29T04:02:40;18.35;;;5.57;;
22007;SDS011;11168;56.976;24.168;2023-12-29T04:05:09;23.92;;;5.60;;
22007;SDS011;11168;56.976;24.168;2023-12-29T04:07:39;22.00;;;4.65;;
22007;SDS011;11168;56.976;24.168;2023-12-29T04:10:07;20.67;;;4.97;;
22007;SDS011;11168;56.976;24.168;2023-12-29T04:12:35;23.23;;;4.00;;
22007;SDS011;11168;56.976;24.168;2023-12-29T04:15:05;22.48;;;4.03;;
22007;SDS011;11168;56.976;24.168;2023-12-29T04:17:33;21.92;;;4.63;;
22007;SDS011;11168;56.976;24.168;2023-12-29T04:20:00;17.58;;;4.50;;
22007;SDS011;11168;56.976;24.168;2023-12-29T04:22:27;19.10;;;4.80;;
22007;SDS011;11168;56.976;24.168;2023-12-29T04:24:54;14.77;;;4.68;;
22007;SDS011;11168;56.976;24.168;2023-12-29T04:27:21;18.02;;;4.90;;
22007;SDS011;11168;56.976;24.168;2023-12-29T04:29:51;29.35;;;5.32;;
22007;SDS011;11168;56.976;24.168;2023-12-29T04:32:18;17.02;;;4.45;;
22007;SDS011;11168;56.976;24.168;2023-12-29T04:34:46;23.45;;;5.28;;
22007;SDS011;11168;56.976;24.168;2023-12-29T04:37:14;24.75;;;5.30;;
22007;SDS011;11168;56.976;24.168;2023-12-29T04:39:41;21.92;;;4.90;;
22007;SDS011;11168;56.976;24.168;2023-12-29T04:42:08;24.38;;;5.60;;
22007;SDS011;11168;56.976;24.168;2023-12-29T04:44:35;21.33;;;4.68;;
22007;SDS011;11168;56.976;24.168;2023-12-29T04:47:03;22.58;;;5.70;;
22007;SDS011;11168;56.976;24.168;2023-12-29T04:49:30;25.52;;;5.95;;
22007;SDS011;11168;56.976;24.168;2023-12-29T04:51:58;27.75;;;5.57;;
22007;SDS011;11168;56.976;24.168;2023-12-29T04:54:26;24.17;;;6.35;;
22007;SDS011;11168;56.976;24.168;2023-12-29T04:56:53;27.38;;;6.65;;
22007;SDS011;11168;56.976;24.168;2023-12-29T04:59:20;20.55;;;5.90;;
22007;SDS011;11168;56.976;24.168;2023-12-29T05:01:47;30.95;;;6.20;;
22007;SDS011;11168;56.976;24.168;2023-12-29T05:04:15;23.23;;;6.40;;
22007;SDS011;11168;56.976;24.168;2023-12-29T05:06:43;24.80;;;5.70;;
22007;SDS011;11168;56.976;24.168;2023-12-29T05:09:10;38.55;;;6.65;;
22007;SDS011;11168;56.976;24.168;2023-12-29T05:11:38;32.90;;;7.78;;
22007;SDS011;11168;56.976;24.168;2023-12-29T05:14:05;34.55;;;7.47;;
22007;SDS011;11168;56.976;24.168;2023-12-29T05:16:33;41.25;;;7.07;;
22007;SDS011;11168;56.976;24.168;2023-12-29T05:19:00;29.98;;;6.88;;
22007;SDS011;11168;56.976;24.168;2023-12-29T05:21:27;37.47;;;7.78;;
22007;SDS011;11168;56.976;24.168;2023-12-29T05:23:54;39.03;;;8.13;;
22007;SDS011;11168;56.976;24.168;2023-12-29T05:26:21;28.77;;;7.82;;
22007;SDS011;11168;56.976;24.168;2023-12-29T05:28:48;35.67;;;9.82;;
22007;SDS011;11168;56.976;24.168;2023-12-29T05:31:16;38.08;;;11.70;;
22007;SDS011;11168;56.976;24.168;2023-12-29T05:33:46;40.22;;;13.10;;
22007;SDS011;11168;56.976;24.168;2023-12-29T05:36:14;42.45;;;13.32;;
22007;SDS011;11168;56.976;24.168;2023-12-29T05:38:42;47.03;;;12.70;;
22007;SDS011;11168;56.976;24.168;2023-12-29T05:41:15;44.53;;;12.77;;
22007;SDS011;11168;56.976;24.168;2023-12-29T05:46:10;35.80;;;12.05;;
22007;SDS011;11168;56.976;24.168;2023-12-29T05:48:41;40.58;;;12.23;;
22007;SDS011;11168;56.976;24.168;2023-12-29T05:51:08;35.60;;;12.75;;
22007;SDS011;11168;56.976;24.168;2023-12-29T05:53:36;37.83;;;12.38;;
22007;SDS011;11168;56.976;24.168;2023-12-29T05:56:03;46.80;;;12.73;;
22007;SDS011;11168;56.976;24.168;2023-12-29T05:58:31;36.35;;;11.15;;
22007;SDS011;11168;56.976;24.168;2023-12-29T06:00:58;37.47;;;11.63;;
22007;SDS011;11168;56.976;24.168;2023-12-29T06:03:27;33.40;;;12.65;;
22007;SDS011;11168;56.976;24.168;2023-12-29T06:05:54;29.08;;;12.13;;
22007;SDS011;11168;56.976;24.168;2023-12-29T06:08:21;38.63;;;12.05;;
22007;SDS011;11168;56.976;24.168;2023-12-29T06:10:51;28.23;;;11.90;;
22007;SDS011;11168;56.976;24.168;2023-12-29T06:13:18;32.95;;;11.80;;
22007;SDS011;11168;56.976;24.168;2023-12-29T06:15:45;37.60;;;13.10;;
22007;SDS011;11168;56.976;24.168;2023-12-29T06:18:12;27.55;;;11.80;;
22007;SDS011;11168;56.976;24.168;2023-12-29T06:20:40;32.03;;;11.68;;
22007;SDS011;11168;56.976;24.168;2023-12-29T06:23:07;29.98;;;11.98;;
22007;SDS011;11168;56.976;24.168;2023-12-29T06:25:34;28.02;;;12.00;;
22007;SDS011;11168;56.976;24.168;2023-12-29T06:28:04;23.15;;;10.48;;
22007;SDS011;11168;56.976;24.168;2023-12-29T06:30:33;27.13;;;12.18;;
22007;SDS011;11168;56.976;24.168;2023-12-29T06:33:00;36.35;;;12.70;;
22007;SDS011;11168;56.976;24.168;2023-12-29T06:35:28;30.35;;;13.38;;
22007;SDS011;11168;56.976;24.168;2023-12-29T06:37:55;27.17;;;13.32;;
22007;SDS011;11168;56.976;24.168;2023-12-29T06:40:23;28.73;;;13.48;;
22007;SDS011;11168;56.976;24.168;2023-12-29T06:42:50;30.05;;;14.55;;
22007;SDS011;11168;56.976;24.168;2023-12-29T06:45:18;31.90;;;15.35;;
22007;SDS011;11168;56.976;24.168;2023-12-29T06:47:47;31.90;;;14.20;;
22007;SDS011;11168;56.976;24.168;2023-12-29T06:50:14;26.60;;;13.23;;
22007;SDS011;11168;56.976;24.168;2023-12-29T06:52:41;23.20;;;12.40;;
22007;SDS011;11168;56.976;24.168;2023-12-29T06:55:09;29.73;;;13.88;;
22007;SDS011;11168;56.976;24.168;2023-12-29T06:57:36;25.67;;;13.10;;
22007;SDS011;11168;56.976;24.168;2023-12-29T07:00:04;24.20;;;14.85;;
22007;SDS011;11168;56.976;24.168;2023-12-29T07:02:32;26.05;;;14.05;;
22007;SDS011;11168;56.976;24.168;2023-12-29T07:05:00;31.27;;;13.88;;
22007;SDS011;11168;56.976;24.168;2023-12-29T07:07:27;34.72;;;14.60;;
22007;SDS011;11168;56.976;24.168;2023-12-29T07:09:54;29.35;;;14.07;;
22007;SDS011;11168;56.976;24.168;2023-12-29T07:12:25;32.00;;;14.73;;
22007;SDS011;11168;56.976;24.168;2023-12-29T07:14:53;27.10;;;15.15;;
22007;SDS011;11168;56.976;24.168;2023-12-29T07:17:22;30.80;;;15.07;;
22007;SDS011;11168;56.976;24.168;2023-12-29T07:19:49;28.30;;;14.45;;
22007;SDS011;11168;56.976;24.168;2023-12-29T07:22:17;29.13;;;15.45;;
22007;SDS011;11168;56.976;24.168;2023-12-29T07:24:44;26.05;;;15.23;;
22007;SDS011;11168;56.976;24.168;2023-12-29T07:27:12;27.67;;;15.05;;
22007;SDS011;11168;56.976;24.168;2023-12-29T07:29:39;35.50;;;15.63;;
22007;SDS011;11168;56.976;24.168;2023-12-29T07:32:07;25.13;;;15.18;;
22007;SDS011;11168;56.976;24.168;2023-12-29T07:34:35;28.58;;;15.73;;
22007;SDS011;11168;56.976;24.168;2023-12-29T07:37:02;30.52;;;16.80;;
22007;SDS011;11168;56.976;24.168;2023-12-29T07:39:32;29.50;;;17.20;;
22007;SDS011;11168;56.976;24.168;2023-12-29T07:42:03;25.55;;;17.33;;
22007;SDS011;11168;56.976;24.168;2023-12-29T07:44:32;26.95;;;17.27;;
22007;SDS011;11168;56.976;24.168;2023-12-29T07:47:01;32.40;;;17.15;;
22007;SDS011;11168;56.976;24.168;2023-12-29T07:49:30;29.25;;;17.38;;
22007;SDS011;11168;56.976;24.168;2023-12-29T07:51:57;29.85;;;17.88;;
22007;SDS011;11168;56.976;24.168;2023-12-29T07:54:26;30.95;;;18.20;;
22007;SDS011;11168;56.976;24.168;2023-12-29T07:56:53;31.27;;;17.10;;
22007;SDS011;11168;56.976;24.168;2023-12-29T07:59:21;28.98;;;17.55;;
22007;SDS011;11168;56.976;24.168;2023-12-29T08:01:48;26.85;;;16.08;;
22007;SDS011;11168;56.976;24.168;2023-12-29T08:04:15;25.20;;;14.93;;
22007;SDS011;11168;56.976;24.168;2023-12-29T08:06:43;25.35;;;15.60;;
22007;SDS011;11168;56.976;24.168;2023-12-29T08:09:10;26.65;;;14.98;;
22007;SDS011;11168;56.976;24.168;2023-12-29T08:11:37;25.20;;;15.80;;
22007;SDS011;11168;56.976;24.168;2023-12-29T08:14:04;25.27;;;15.18;;
22007;SDS011;11168;56.976;24.168;2023-12-29T08:16:34;25.25;;;14.70;;
22007;SDS011;11168;56.976;24.168;2023-12-29T08:19:09;20.25;;;13.50;;
22007;SDS011;11168;56.976;24.168;2023-12-29T08:21:37;23.88;;;12.80;;
22007;SDS011;11168;56.976;24.168;2023-12-29T08:24:04;24.08;;;13.20;;
22007;SDS011;11168;56.976;24.168;2023-12-29T08:26:32;18.98;;;12.60;;
22007;SDS011;11168;56.976;24.168;2023-12-29T08:28:59;22.27;;;13.23;;
22007;SDS011;11168;56.976;24.168;2023-12-29T08:31:26;24.00;;;13.55;;
22007;SDS011;11168;56.976;24.168;2023-12-29T08:33:55;27.05;;;13.52;;
22007;SDS011;11168;56.976;24.168;2023-12-29T08:36:22;20.02;;;13.15;;
22007;SDS011;11168;56.976;24.168;2023-12-29T08:38:49;22.92;;;13.65;;
22007;SDS011;11168;56.976;24.168;2023-12-29T08:41:16;22.73;;;12.80;;
22007;SDS011;11168;56.976;24.168;2023-12-29T08:43:44;26.80;;;13.82;;
22007;SDS011;11168;56.976;24.168;2023-12-29T08:46:11;23.08;;;13.90;;
22007;SDS011;11168;56.976;24.168;2023-12-29T08:48:38;22.15;;;12.98;;
22007;SDS011;11168;56.976;24.168;2023-12-29T08:51:06;26.05;;;12.43;;
22007;SDS011;11168;56.976;24.168;2023-12-29T08:53:33;24.58;;;12.80;;
22007;SDS011;11168;56.976;24.168;2023-12-29T08:56:02;22.90;;;13.10;;
22007;SDS011;11168;56.976;24.168;2023-12-29T08:58:29;21.38;;;12.88;;
22007;SDS011;11168;56.976;24.168;2023-12-29T09:00:58;24.00;;;14.00;;
22007;SDS011;11168;56.976;24.168;2023-12-29T09:03:25;23.15;;;13.45;;
22007;SDS011;11168;56.976;24.168;2023-12-29T09:05:52;27.33;;;13.73;;
22007;SDS011;11168;56.976;24.168;2023-12-29T09:08:20;23.33;;;12.45;;
22007;SDS011;11168;56.976;24.168;2023-12-29T09:10:47;21.10;;;12.32;;
22007;SDS011;11168;56.976;24.168;2023-12-29T09:13:15;24.23;;;12.18;;
22007;SDS011;11168;56.976;24.168;2023-12-29T09:15:45;27.02;;;12.82;;
22007;SDS011;11168;56.976;24.168;2023-12-29T09:18:12;22.92;;;12.20;;
22007;SDS011;11168;56.976;24.168;2023-12-29T09:20:39;21.58;;;12.40;;
22007;SDS011;11168;56.976;24.168;2023-12-29T09:23:06;23.42;;;11.75;;
22007;SDS011;11168;56.976;24.168;2023-12-29T09:25:33;21.77;;;11.93;;
22007;SDS011;11168;56.976;24.168;2023-12-29T09:28:00;23.60;;;11.57;;
22007;SDS011;11168;56.976;24.168;2023-12-29T09:30:30;21.83;;;11.65;;
22007;SDS011;11168;56.976;24.168;2023-12-29T09:32:58;21.38;;;11.90;;
22007;SDS011;11168;56.976;24.168;2023-12-29T09:35:25;21.80;;;12.40;;
22007;SDS011;11168;56.976;24.168;2023-12-29T09:37:52;18.15;;;11.23;;
22007;SDS011;11168;56.976;24.168;2023-12-29T09:40:19;20.13;;;11.70;;
22007;SDS011;11168;56.976;24.168;2023-12-29T09:42:48;20.90;;;12.35;;
22007;SDS011;11168;56.976;24.168;2023-12-29T09:45:20;20.83;;;11.13;;
22007;SDS011;11168;56.976;24.168;2023-12-29T09:47:52;17.38;;;10.43;;
22007;SDS011;11168;56.976;24.168;2023-12-29T09:50:27;21.63;;;10.52;;
22007;SDS011;11168;56.976;24.168;2023-12-29T09:52:55;17.85;;;9.27;;
22007;SDS011;11168;56.976;24.168;2023-12-29T09:55:23;13.50;;;9.05;;
22007;SDS011;11168;56.976;24.168;2023-12-29T09:57:53;20.80;;;9.88;;
22007;SDS011;11168;56.976;24.168;2023-12-29T10:00:21;16.60;;;10.10;;
22007;SDS011;11168;56.976;24.168;2023-12-29T10:02:50;16.20;;;10.32;;
22007;SDS011;11168;56.976;24.168;2023-12-29T10:05:21;14.93;;;10.90;;
22007;SDS011;11168;56.976;24.168;2023-12-29T10:07:48;17.10;;;9.75;;
22007;SDS011;11168;56.976;24.168;2023-12-29T10:10:17;17.42;;;9.80;;
22007;SDS011;11168;56.976;24.168;2023-12-29T10:12:47;18.60;;;10.00;;
22007;SDS011;11168;56.976;24.168;2023-12-29T10:15:24;15.70;;;9.88;;
22007;SDS011;11168;56.976;24.168;2023-12-29T10:18:18;16.98;;;9.85;;
22007;SDS011;11168;56.976;24.168;2023-12-29T10:21:01;19.60;;;10.23;;
22007;SDS011;11168;56.976;24.168;2023-12-29T10:23:36;18.38;;;9.07;;
22007;SDS011;11168;56.976;24.168;2023-12-29T10:26:10;18.50;;;9.27;;
22007;SDS011;11168;56.976;24.168;2023-12-29T10:28:43;15.32;;;9.80;;
22007;SDS011;11168;56.976;24.168;2023-12-29T10:31:11;13.40;;;9.40;;
22007;SDS011;11168;56.976;24.168;2023-12-29T10:33:42;14.10;;;9.13;;
22007;SDS011;11168;56.976;24.168;2023-12-29T10:36:11;15.00;;;9.95;;
22007;SDS011;11168;56.976;24.168;2023-12-29T10:38:40;15.27;;;10.23;;
22007;SDS011;11168;56.976;24.168;2023-12-29T10:41:12;14.90;;;9.50;;
22007;SDS011;11168;56.976;24.168;2023-12-29T10:43:42;13.75;;;9.30;;
22007;SDS011;11168;56.976;24.168;2023-12-29T10:46:21;14.85;;;9.68;;
22007;SDS011;11168;56.976;24.168;2023-12-29T10:48:52;19.30;;;9.50;;
22007;SDS011;11168;56.976;24.168;2023-12-29T10:51:35;13.43;;;9.85;;
22007;SDS011;11168;56.976;24.168;2023-12-29T10:54:04;14.73;;;9.63;;
22007;SDS011;11168;56.976;24.168;2023-12-29T10:56:32;15.18;;;9.90;;
22007;SDS011;11168;56.976;24.168;2023-12-29T10:59:03;12.73;;;9.48;;
22007;SDS011;11168;56.976;24.168;2023-12-29T11:01:33;12.77;;;9.18;;
22007;SDS011;11168;56.976;24.168;2023-12-29T11:04:03;14.27;;;9.10;;
22007;SDS011;11168;56.976;24.168;2023-12-29T11:06:41;14.83;;;10.23;;
22007;SDS011;11168;56.976;24.168;2023-12-29T11:09:11;17.95;;;10.07;;
22007;SDS011;11168;56.976;24.168;2023-12-29T11:11:38;17.70;;;11.85;;
22007;SDS011;11168;56.976;24.168;2023-12-29T11:14:06;18.58;;;10.75;;
22007;SDS011;11168;56.976;24.168;2023-12-29T11:16:37;16.58;;;10.43;;
22007;SDS011;11168;56.976;24.168;2023-12-29T11:19:05;16.60;;;11.13;;
22007;SDS011;11168;56.976;24.168;2023-12-29T11:21:36;16.02;;;11.23;;
22007;SDS011;11168;56.976;24.168;2023-12-29T11:24:05;19.05;;;12.50;;
22007;SDS011;11168;56.976;24.168;2023-12-29T11:26:33;17.10;;;10.90;;
22007;SDS011;11168;56.976;24.168;2023-12-29T11:29:01;15.90;;;11.15;;
22007;SDS011;11168;56.976;24.168;2023-12-29T11:31:31;16.67;;;11.40;;
22007;SDS011;11168;56.976;24.168;2023-12-29T11:34:00;17.30;;;11.55;;
22007;SDS011;11168;56.976;24.168;2023-12-29T11:36:36;15.15;;;9.73;;
22007;SDS011;11168;56.976;24.168;2023-12-29T11:42:17;19.98;;;12.00;;
22007;SDS011;11168;56.976;24.168;2023-12-29T11:44:49;19.20;;;11.23;;
22007;SDS011;11168;56.976;24.168;2023-12-29T11:47:35;19.33;;;11.40;;
22007;SDS011;11168;56.976;24.168;2023-12-29T11:50:05;17.67;;;11.45;;
22007;SDS011;11168;56.976;24.168;2023-12-29T11:52:36;16.00;;;10.30;;
22007;SDS011;11168;56.976;24.168;2023-12-29T11:55:10;16.90;;;10.05;;
22007;SDS011;11168;56.976;24.168;2023-12-29T11:57:38;10.80;;;7.75;;
22007;SDS011;11168;56.976;24.168;2023-12-29T12:00:11;15.70;;;10.07;;
22007;SDS011;11168;56.976;24.168;2023-12-29T12:02:39;15.98;;;9.85;;
22007;SDS011;11168;56.976;24.168;2023-12-29T12:05:09;21.25;;;10.43;;
22007;SDS011;11168;56.976;24.168;2023-12-29T12:10:28;21.55;;;11.00;;
22007;SDS011;11168;56.976;24.168;2023-12-29T12:13:00;15.88;;;9.43;;
22007;SDS011;11168;56.976;24.168;2023-12-29T12:15:35;16.95;;;9.90;;
22007;SDS011;11168;56.976;24.168;2023-12-29T12:18:05;15.93;;;9.80;;
22007;SDS011;11168;56.976;24.168;2023-12-29T12:20:34;13.75;;;9.63;;
22007;SDS011;11168;56.976;24.168;2023-12-29T12:23:04;15.38;;;9.23;;
22007;SDS011;11168;56.976;24.168;2023-12-29T12:25:41;12.10;;;8.38;;
22007;SDS011;11168;56.976;24.168;2023-12-29T12:28:09;10.98;;;7.07;;
22007;SDS011;11168;56.976;24.168;2023-12-29T12:30:37;12.65;;;8.50;;
22007;SDS011;11168;56.976;24.168;2023-12-29T12:33:04;14.15;;;9.07;;
22007;SDS011;11168;56.976;24.168;2023-12-29T12:35:32;12.55;;;8.60;;
22007;SDS011;11168;56.976;24.168;2023-12-29T12:38:13;14.18;;;8.88;;
22007;SDS011;11168;56.976;24.168;2023-12-29T12:40:42;12.93;;;8.75;;
22007;SDS011;11168;56.976;24.168;2023-12-29T12:43:13;15.15;;;9.43;;
22007;SDS011;11168;56.976;24.168;2023-12-29T12:45:46;17.58;;;10.07;;
22007;SDS011;11168;56.976;24.168;2023-12-29T12:48:33;14.90;;;10.40;;
22007;SDS011;11168;56.976;24.168;2023-12-29T12:51:07;13.70;;;10.07;;
22007;SDS011;11168;56.976;24.168;2023-12-29T12:53:39;14.82;;;9.23;;
22007;SDS011;11168;56.976;24.168;2023-12-29T12:56:15;21.65;;;11.25;;
22007;SDS011;11168;56.976;24.168;2023-12-29T12:58:44;18.48;;;11.27;;
22007;SDS011;11168;56.976;24.168;2023-12-29T13:01:12;17.73;;;10.68;;
22007;SDS011;11168;56.976;24.168;2023-12-29T13:03:40;15.93;;;10.57;;
22007;SDS011;11168;56.976;24.168;2023-12-29T13:06:07;17.23;;;11.35;;
22007;SDS011;11168;56.976;24.168;2023-12-29T13:08:35;17.75;;;10.65;;
22007;SDS011;11168;56.976;24.168;2023-12-29T13:11:08;16.02;;;10.52;;
22007;SDS011;11168;56.976;24.168;2023-12-29T13:13:40;17.55;;;10.95;;
22007;SDS011;11168;56.976;24.168;2023-12-29T13:16:14;13.38;;;10.27;;
22007;SDS011;11168;56.976;24.168;2023-12-29T13:18:45;17.73;;;10.20;;
22007;SDS011;11168;56.976;24.168;2023-12-29T13:21:17;15.38;;;10.43;;
22007;SDS011;11168;56.976;24.168;2023-12-29T13:23:47;16.35;;;11.07;;
22007;SDS011;11168;56.976;24.168;2023-12-29T13:26:14;17.85;;;12.02;;
22007;SDS011;11168;56.976;24.168;2023-12-29T13:28:45;18.92;;;11.73;;
22007;SDS011;11168;56.976;24.168;2023-12-29T13:31:13;16.02;;;11.35;;
22007;SDS011;11168;56.976;24.168;2023-12-29T13:33:46;14.82;;;11.73;;
22007;SDS011;11168;56.976;24.168;2023-12-29T13:36:51;19.10;;;11.20;;
22007;SDS011;11168;56.976;24.168;2023-12-29T13:39:29;22.38;;;12.35;;
22007;SDS011;11168;56.976;24.168;2023-12-29T13:42:11;15.18;;;10.00;;
22007;SDS011;11168;56.976;24.168;2023-12-29T13:44:42;20.58;;;12.15;;
22007;SDS011;11168;56.976;24.168;2023-12-29T13:47:11;18.45;;;11.70;;
22007;SDS011;11168;56.976;24.168;2023-12-29T13:49:39;19.27;;;10.75;;
22007;SDS011;11168;56.976;24.168;2023-12-29T13:52:06;14.65;;;10.00;;
22007;SDS011;11168;56.976;24.168;2023-12-29T13:54:40;16.85;;;10.95;;
22007;SDS011;11168;56.976;24.168;2023-12-29T13:57:11;16.00;;;10.45;;
22007;SDS011;11168;56.976;24.168;2023-12-29T13:59:38;15.95;;;10.07;;
22007;SDS011;11168;56.976;24.168;2023-12-29T14:04:50;16.58;;;11.52;;
22007;SDS011;11168;56.976;24.168;2023-12-29T14:07:18;14.82;;;10.80;;
22007;SDS011;11168;56.976;24.168;2023-12-29T14:09:53;15.05;;;11.43;;
22007;SDS011;11168;56.976;24.168;2023-12-29T14:12:25;15.50;;;10.98;;
22007;SDS011;11168;56.976;24.168;2023-12-29T14:14:52;14.82;;;10.23;;
22007;SDS011;11168;56.976;24.168;2023-12-29T14:17:21;15.68;;;11.32;;
22007;SDS011;11168;56.976;24.168;2023-12-29T14:19:48;18.08;;;11.50;;
22007;SDS011;11168;56.976;24.168;2023-12-29T14:22:22;19.60;;;12.50;;
22007;SDS011;11168;56.976;24.168;2023-12-29T14:25:07;20.42;;;12.73;;
22007;SDS011;11168;56.976;24.168;2023-12-29T14:27:35;19.20;;;13.27;;
22007;SDS011;11168;56.976;24.168;2023-12-29T14:30:02;15.02;;;11.57;;
22007;SDS011;11168;56.976;24.168;2023-12-29T14:32:29;19.98;;;13.65;;
22007;SDS011;11168;56.976;24.168;2023-12-29T14:34:57;22.15;;;14.07;;
22007;SDS011;11168;56.976;24.168;2023-12-29T14:37:25;20.83;;;13.48;;
22007;SDS011;11168;56.976;24.168;2023-12-29T14:39:52;20.95;;;14.07;;
22007;SDS011;11168;56.976;24.168;2023-12-29T14:42:19;19.73;;;13.63;;